createdAt,value
2022-10-29T00:00:57.889Z,2.30
2022-10-29T00:03:26.855Z,2.13
2022-10-29T00:05:59.896Z,2.40
2022-10-29T00:08:28.664Z,2.53
2022-10-29T00:11:06.483Z,2.70
2022-10-29T00:13:34.798Z,2.63
2022-10-29T00:16:05.963Z,2.80
2022-10-29T00:18:33.980Z,2.63
2022-10-29T00:21:02.751Z,2.40
2022-10-29T00:23:30.914Z,2.90
2022-10-29T00:26:00.936Z,2.93
2022-10-29T00:28:29.619Z,2.60
2022-10-29T00:30:57.873Z,2.50
2022-10-29T00:33:25.837Z,2.77
2022-10-29T00:35:57.968Z,2.70
2022-10-29T00:38:26.374Z,2.70
2022-10-29T00:40:54.679Z,2.20
2022-10-29T00:43:26.696Z,2.43
2022-10-29T00:45:58.663Z,2.60
2022-10-29T00:48:28.843Z,2.80
2022-10-29T00:50:59.077Z,2.60
2022-10-29T00:53:30.080Z,2.40
2022-10-29T00:55:59.892Z,2.80
2022-10-29T00:58:30.695Z,2.80
2022-10-29T01:00:59.441Z,2.30
2022-10-29T01:03:27.498Z,2.33
2022-10-29T01:05:56.123Z,2.50
2022-10-29T01:08:24.634Z,2.50
2022-10-29T01:11:03.689Z,2.50
2022-10-29T01:13:49.091Z,2.37
2022-10-29T01:16:28.935Z,2.40
2022-10-29T01:19:06.201Z,2.50
2022-10-29T01:21:40.651Z,2.53
2022-10-29T01:24:56.152Z,2.60
2022-10-29T01:27:50.963Z,2.50
2022-10-29T01:30:39.093Z,2.30
2022-10-29T01:33:16.322Z,2.50
2022-10-29T01:35:54.990Z,2.30
2022-10-29T01:38:33.277Z,2.30
2022-10-29T01:41:11.020Z,2.50
2022-10-29T01:43:47.072Z,2.43
2022-10-29T01:46:21.601Z,2.37
2022-10-29T01:48:56.154Z,2.40
2022-10-29T01:51:27.945Z,2.20
2022-10-29T01:53:56.925Z,2.43
2022-10-29T01:56:24.941Z,2.63
2022-10-29T01:58:57.431Z,2.40
2022-10-29T02:01:37.968Z,2.30
2022-10-29T02:04:33.287Z,2.30
2022-10-29T02:07:05.371Z,2.23
2022-10-29T02:09:40.345Z,2.40
2022-10-29T02:12:18.192Z,2.47
2022-10-29T02:14:52.027Z,2.50
2022-10-29T02:17:20.542Z,2.60
2022-10-29T02:19:49.902Z,2.40
2022-10-29T02:22:17.880Z,2.70
2022-10-29T02:24:45.911Z,2.40
2022-10-29T02:27:13.870Z,2.37
2022-10-29T02:29:42.579Z,2.90
2022-10-29T02:32:10.516Z,2.40
2022-10-29T02:34:38.460Z,2.80
2022-10-29T02:37:07.818Z,2.70
2022-10-29T02:39:35.769Z,2.83
2022-10-29T02:42:03.755Z,2.60
2022-10-29T02:44:31.744Z,2.57
2022-10-29T02:46:59.711Z,2.60
2022-10-29T02:49:27.810Z,2.60
2022-10-29T02:51:55.815Z,2.80
2022-10-29T02:54:25.203Z,2.67
2022-10-29T02:56:53.130Z,2.40
2022-10-29T02:59:21.091Z,2.90
2022-10-29T03:01:49.105Z,3.10
2022-10-29T03:04:17.234Z,3.40
2022-10-29T03:06:45.167Z,3.40
2022-10-29T03:09:13.162Z,3.50
2022-10-29T03:11:42.524Z,3.90
2022-10-29T03:14:10.449Z,4.40
2022-10-29T03:16:38.436Z,3.30
2022-10-29T03:19:06.395Z,3.90
2022-10-29T03:21:34.326Z,4.10
2022-10-29T03:24:02.292Z,3.10
2022-10-29T03:26:30.268Z,3.40
2022-10-29T03:28:59.594Z,3.50
2022-10-29T03:31:27.587Z,3.70
2022-10-29T03:33:55.533Z,4.07
2022-10-29T03:36:23.681Z,3.27
2022-10-29T03:38:51.695Z,3.60
2022-10-29T03:41:19.666Z,3.33
2022-10-29T03:43:47.649Z,2.80
2022-10-29T03:46:17.078Z,3.20
2022-10-29T03:48:45.094Z,3.03
2022-10-29T03:51:13.064Z,3.03
2022-10-29T03:53:41.005Z,2.47
2022-10-29T03:56:12.988Z,2.80
2022-10-29T03:58:40.957Z,3.00
2022-10-29T04:01:10.563Z,3.10
2022-10-29T04:03:42.362Z,2.97
2022-10-29T04:06:12.881Z,3.00
2022-10-29T04:08:44.972Z,3.03
2022-10-29T04:11:13.957Z,3.13
2022-10-29T04:13:42.122Z,2.97
2022-10-29T04:16:13.597Z,3.40
2022-10-29T04:18:42.935Z,3.00
2022-10-29T04:29:35.138Z,3.20
2022-10-29T04:32:03.081Z,3.20
2022-10-29T04:34:32.448Z,3.30
2022-10-29T04:37:00.411Z,3.00
2022-10-29T04:39:28.352Z,3.23
2022-10-29T04:41:56.293Z,3.30
2022-10-29T04:44:24.340Z,3.30
2022-10-29T04:46:52.286Z,3.40
2022-10-29T04:49:20.410Z,3.63
2022-10-29T04:51:49.824Z,3.47
2022-10-29T04:54:17.808Z,3.90
2022-10-29T04:56:45.762Z,3.80
2022-10-29T04:59:13.797Z,3.70
2022-10-29T05:01:41.740Z,3.93
2022-10-29T05:04:09.896Z,3.67
2022-10-29T05:06:37.885Z,3.60
2022-10-29T05:09:07.234Z,3.60
2022-10-29T05:11:35.217Z,3.80
2022-10-29T05:14:03.339Z,3.50
2022-10-29T05:16:31.296Z,3.43
2022-10-29T05:18:59.310Z,3.10
2022-10-29T05:21:27.365Z,3.57
2022-10-29T05:23:55.369Z,3.83
2022-10-29T05:26:24.752Z,3.20
2022-10-29T05:28:53.252Z,3.50
2022-10-29T05:31:21.185Z,2.90
2022-10-29T05:33:51.246Z,3.67
2022-10-29T05:36:21.895Z,3.30
2022-10-29T05:38:49.910Z,3.63
2022-10-29T05:41:18.313Z,3.63
2022-10-29T05:43:51.132Z,3.77
2022-10-29T05:46:19.131Z,3.80
2022-10-29T05:48:47.115Z,3.87
2022-10-29T05:51:15.062Z,3.70
2022-10-29T05:53:43.052Z,3.20
2022-10-29T05:56:11.011Z,3.90
2022-10-29T05:58:38.977Z,3.70
2022-10-29T06:01:09.414Z,3.70
2022-10-29T06:03:39.787Z,3.60
2022-10-29T06:06:08.371Z,3.77
2022-10-29T06:08:36.335Z,3.60
2022-10-29T06:11:05.345Z,3.40
2022-10-29T06:13:34.848Z,3.30
2022-10-29T06:16:02.781Z,3.10
2022-10-29T06:18:32.149Z,3.30
2022-10-29T06:21:01.044Z,2.97
2022-10-29T06:23:32.079Z,2.90
2022-10-29T06:26:00.892Z,3.40
2022-10-29T06:28:33.634Z,2.70
2022-10-29T06:31:03.122Z,3.13
2022-10-29T06:33:32.525Z,2.67
2022-10-29T06:36:01.459Z,3.40
2022-10-29T06:38:29.534Z,2.97
2022-10-29T06:40:57.488Z,3.03
2022-10-29T06:43:25.565Z,3.20
2022-10-29T06:45:53.637Z,3.70
2022-10-29T06:48:22.712Z,3.60
2022-10-29T06:50:55.344Z,3.60
2022-10-29T06:53:23.355Z,4.10
2022-10-29T06:55:51.368Z,6.87
2022-10-29T06:58:21.284Z,7.40
2022-10-29T07:00:50.000Z,7.77
2022-10-29T07:03:19.887Z,6.97
2022-10-29T07:05:48.718Z,7.20
2022-10-29T07:08:18.080Z,7.20
2022-10-29T07:10:46.097Z,6.70
2022-10-29T07:13:14.067Z,6.77
2022-10-29T07:15:42.073Z,5.43
2022-10-29T07:18:13.253Z,6.60
2022-10-29T07:20:43.412Z,6.43
2022-10-29T07:23:12.109Z,5.87
2022-10-29T07:25:42.082Z,5.13
2022-10-29T07:28:13.726Z,6.03
2022-10-29T07:30:42.278Z,6.47
2022-10-29T07:33:10.403Z,6.00
2022-10-29T07:35:38.382Z,5.67
2022-10-29T07:38:10.895Z,5.67
2022-10-29T07:40:47.054Z,5.00
2022-10-29T07:43:15.152Z,5.30
2022-10-29T07:45:43.885Z,5.33
2022-10-29T07:48:11.908Z,5.37
2022-10-29T07:50:40.446Z,5.70
2022-10-29T07:53:09.512Z,5.40
2022-10-29T07:55:37.810Z,5.80
2022-10-29T07:58:09.049Z,5.83
2022-10-29T08:00:38.504Z,5.70
2022-10-29T08:03:07.106Z,6.20
2022-10-29T08:05:35.383Z,6.50
2022-10-29T08:08:03.396Z,6.37
2022-10-29T08:10:32.501Z,6.30
2022-10-29T08:13:02.193Z,5.57
2022-10-29T08:15:33.506Z,5.47
2022-10-29T08:18:01.937Z,5.97
2022-10-29T08:20:30.792Z,5.57
2022-10-29T08:23:00.999Z,5.07
2022-10-29T08:25:29.527Z,5.30
2022-10-29T08:28:01.603Z,5.43
2022-10-29T08:30:31.817Z,6.23
2022-10-29T08:33:00.684Z,5.83
2022-10-29T08:35:29.098Z,5.63
2022-10-29T08:37:57.183Z,5.20
2022-10-29T08:40:31.175Z,5.27
2022-10-29T08:43:47.689Z,5.43
2022-10-29T08:46:22.269Z,5.33
2022-10-29T08:48:53.527Z,5.53
2022-10-29T08:51:25.244Z,5.97
2022-10-29T08:54:24.918Z,5.90
2022-10-29T08:56:48.228Z,5.70
2022-10-29T08:59:18.584Z,5.60
2022-10-29T09:01:48.516Z,5.80
2022-10-29T09:04:27.513Z,5.47
2022-10-29T09:07:16.033Z,5.53
2022-10-29T09:09:48.159Z,5.60
2022-10-29T09:12:52.314Z,5.90
2022-10-29T09:15:40.718Z,6.40
2022-10-29T09:18:29.281Z,5.80
2022-10-29T09:21:05.813Z,6.00
2022-10-29T09:23:51.854Z,5.87
2022-10-29T09:26:28.143Z,5.80
2022-10-29T09:29:07.922Z,5.67
2022-10-29T09:31:42.437Z,6.50
2022-10-29T09:34:30.204Z,6.10
2022-10-29T09:36:58.558Z,6.27
2022-10-29T09:39:34.056Z,5.77
2022-10-29T09:42:04.075Z,5.30
2022-10-29T09:44:39.538Z,5.90
2022-10-29T09:47:18.952Z,6.20
2022-10-29T09:50:07.422Z,5.90
2022-10-29T09:52:40.548Z,5.07
2022-10-29T09:55:18.505Z,6.07
2022-10-29T09:57:47.109Z,5.90
2022-10-29T10:00:20.469Z,5.63
2022-10-29T10:02:56.073Z,6.13
2022-10-29T10:05:28.257Z,6.37
2022-10-29T10:08:11.900Z,6.50
2022-10-29T10:10:53.154Z,5.87
2022-10-29T10:13:24.641Z,5.60
2022-10-29T10:15:57.576Z,7.17
2022-10-29T10:18:27.294Z,6.57
2022-10-29T10:21:05.812Z,6.13
2022-10-29T10:23:43.953Z,5.87
2022-10-29T10:26:35.791Z,6.40
2022-10-29T10:29:12.045Z,6.97
2022-10-29T10:31:40.215Z,7.30
2022-10-29T10:34:17.975Z,5.57
2022-10-29T10:36:51.265Z,6.40
2022-10-29T10:39:29.219Z,5.77
2022-10-29T10:41:58.507Z,6.20
2022-10-29T10:44:28.076Z,6.13
2022-10-29T10:46:59.590Z,5.87
2022-10-29T10:49:35.011Z,4.93
2022-10-29T10:52:06.977Z,5.77
2022-10-29T10:54:38.085Z,6.47
2022-10-29T10:57:21.941Z,6.70
2022-10-29T11:00:04.514Z,5.87
2022-10-29T11:02:40.629Z,6.80
2022-10-29T11:05:17.516Z,6.40
2022-10-29T11:07:51.810Z,6.57
2022-10-29T11:10:24.065Z,6.00
2022-10-29T11:12:57.426Z,6.03
2022-10-29T11:15:35.825Z,6.13
2022-10-29T11:18:11.867Z,5.87
2022-10-29T11:20:46.028Z,5.80
2022-10-29T11:23:30.824Z,5.27
2022-10-29T11:26:05.324Z,6.00
2022-10-29T11:28:39.699Z,5.47
2022-10-29T11:31:18.484Z,5.20
2022-10-29T11:33:53.744Z,5.97
2022-10-29T11:36:24.584Z,5.83
2022-10-29T11:38:59.344Z,6.40
2022-10-29T11:41:33.548Z,5.67
2022-10-29T11:44:01.656Z,5.33
2022-10-29T11:46:40.553Z,5.87
2022-10-29T11:49:24.491Z,6.07
2022-10-29T11:52:03.397Z,6.20
2022-10-29T11:54:51.341Z,5.97
2022-10-29T11:57:25.070Z,5.67
2022-10-29T12:00:05.487Z,5.33
2022-10-29T12:02:47.426Z,5.47
2022-10-29T12:05:24.330Z,6.30
2022-10-29T12:08:13.980Z,6.03
2022-10-29T12:10:51.326Z,6.00
2022-10-29T12:13:29.598Z,5.47
2022-10-29T12:16:12.315Z,6.40
2022-10-29T12:18:49.211Z,5.73
2022-10-29T12:21:28.012Z,6.03
2022-10-29T12:24:08.546Z,5.43
2022-10-29T12:26:45.733Z,5.80
2022-10-29T12:29:22.297Z,6.00
2022-10-29T12:31:59.729Z,5.23
2022-10-29T12:34:38.349Z,5.80
2022-10-29T12:37:14.521Z,5.87
2022-10-29T12:39:48.178Z,5.67
2022-10-29T12:42:23.347Z,5.63
2022-10-29T12:45:04.091Z,5.33
2022-10-29T12:47:37.799Z,4.83
2022-10-29T12:50:21.690Z,5.50
2022-10-29T12:52:58.477Z,6.23
2022-10-29T12:55:27.213Z,5.93
2022-10-29T12:57:56.625Z,6.27
2022-10-29T13:00:47.710Z,5.83
2022-10-29T13:03:48.795Z,6.17
2022-10-29T13:06:49.580Z,5.80
2022-10-29T13:09:20.291Z,5.07
2022-10-29T13:11:50.147Z,4.80
2022-10-29T13:14:29.055Z,5.03
2022-10-29T13:16:57.802Z,5.37
2022-10-29T13:19:53.288Z,4.73
2022-10-29T13:22:51.723Z,4.00
2022-10-29T13:25:46.372Z,3.97
2022-10-29T13:28:52.373Z,3.40
2022-10-29T13:31:54.292Z,3.70
2022-10-29T13:34:54.213Z,2.83
2022-10-29T13:38:03.474Z,3.00
2022-10-29T13:41:06.363Z,2.30
2022-10-29T13:43:34.698Z,2.87
2022-10-29T13:46:43.979Z,2.40
2022-10-29T13:49:19.374Z,2.07
2022-10-29T13:51:54.600Z,2.33
2022-10-29T13:54:45.530Z,2.40
2022-10-29T13:57:22.456Z,2.10
2022-10-29T13:59:56.933Z,2.30
2022-10-29T14:02:36.871Z,2.20
2022-10-29T14:05:13.890Z,2.30
2022-10-29T14:07:49.244Z,2.43
2022-10-29T14:10:21.692Z,2.30
2022-10-29T14:12:53.448Z,2.63
2022-10-29T14:15:21.682Z,3.07
2022-10-29T14:17:49.793Z,2.73
2022-10-29T14:20:24.861Z,2.67
2022-10-29T14:22:53.010Z,2.93
2022-10-29T14:25:36.026Z,3.00
2022-10-29T14:28:19.300Z,3.10
2022-10-29T14:30:50.309Z,2.80
2022-10-29T14:33:20.578Z,3.13
2022-10-29T14:35:50.427Z,2.90
2022-10-29T14:41:23.646Z,2.40
2022-10-29T14:43:58.167Z,2.53
2022-10-29T14:46:28.852Z,2.20
2022-10-29T14:49:01.910Z,2.70
2022-10-29T14:51:37.137Z,2.00
2022-10-29T14:54:07.690Z,1.90
2022-10-29T14:56:37.872Z,2.20
2022-10-29T14:59:19.684Z,1.60
2022-10-29T15:01:56.794Z,1.90
2022-10-29T15:04:27.700Z,1.90
2022-10-29T15:07:16.004Z,1.90
2022-10-29T15:09:46.314Z,2.10
2022-10-29T15:12:21.410Z,1.60
2022-10-29T15:14:50.975Z,1.30
2022-10-29T15:17:24.032Z,1.70
2022-10-29T15:19:55.737Z,1.63
2022-10-29T15:22:31.342Z,1.60
2022-10-29T15:25:00.718Z,1.50
2022-10-29T15:27:28.770Z,1.70
2022-10-29T15:29:57.296Z,1.87
2022-10-29T15:32:27.447Z,1.60
2022-10-29T15:35:00.445Z,1.43
2022-10-29T15:37:42.959Z,1.50
2022-10-29T15:40:14.911Z,1.40
2022-10-29T15:42:43.311Z,1.40
2022-10-29T15:45:21.460Z,1.50
2022-10-29T15:47:50.872Z,1.53
2022-10-29T15:50:21.904Z,1.47
2022-10-29T15:52:54.680Z,1.67
2022-10-29T15:55:27.017Z,1.77
2022-10-29T15:57:59.507Z,2.23
2022-10-29T16:00:27.869Z,2.00
2022-10-29T16:02:59.131Z,1.80
2022-10-29T16:05:27.617Z,2.00
2022-10-29T16:08:00.906Z,1.80
2022-10-29T16:10:29.092Z,1.50
2022-10-29T16:12:57.779Z,1.10
2022-10-29T16:17:55.348Z,1.40
2022-10-29T16:20:23.538Z,1.60
2022-10-29T16:22:51.544Z,1.60
2022-10-29T16:25:26.197Z,1.50
2022-10-29T16:27:54.593Z,1.90
2022-10-29T16:30:24.901Z,1.63
2022-10-29T16:32:53.818Z,1.50
2022-10-29T16:35:23.559Z,1.60
2022-10-29T16:37:52.936Z,1.70
2022-10-29T16:40:22.819Z,1.80
2022-10-29T16:42:54.903Z,1.57
2022-10-29T16:45:25.309Z,1.70
2022-10-29T16:47:53.620Z,1.60
2022-10-29T16:50:23.861Z,1.63
2022-10-29T16:52:58.561Z,1.50
2022-10-29T16:55:26.936Z,1.70
2022-10-29T16:57:56.744Z,1.83
2022-10-29T17:00:26.132Z,1.83
2022-10-29T17:02:54.361Z,2.23
2022-10-29T17:05:23.291Z,2.00
2022-10-29T17:07:54.123Z,1.97
2022-10-29T17:10:22.765Z,2.00
2022-10-29T17:12:50.890Z,1.83
2022-10-29T17:15:21.155Z,1.90
2022-10-29T17:17:49.262Z,1.80
2022-10-29T17:20:17.431Z,1.80
2022-10-29T17:22:45.649Z,1.90
2022-10-29T17:25:13.710Z,1.70
2022-10-29T17:27:48.191Z,1.90
2022-10-29T17:30:16.393Z,1.80
2022-10-29T17:32:45.799Z,2.20
2022-10-29T17:35:13.743Z,2.10
2022-10-29T17:37:41.781Z,2.40
2022-10-29T17:40:11.198Z,2.00
2022-10-29T17:42:39.331Z,2.10
2022-10-29T17:45:08.648Z,2.00
2022-10-29T17:47:36.804Z,2.03
2022-10-29T17:50:06.957Z,2.10
2022-10-29T17:52:34.882Z,2.10
2022-10-29T17:55:02.825Z,2.70
2022-10-29T17:57:31.498Z,2.63
2022-10-29T17:59:59.474Z,3.10
2022-10-29T18:02:27.499Z,2.97
2022-10-29T18:04:55.581Z,2.60
2022-10-29T18:07:25.071Z,2.47
2022-10-29T18:09:53.094Z,2.47
2022-10-29T18:12:21.149Z,2.60
2022-10-29T18:14:49.133Z,2.80
2022-10-29T18:17:17.076Z,3.00
2022-10-29T18:19:45.108Z,2.97
2022-10-29T18:22:13.205Z,2.73
2022-10-29T18:24:42.638Z,2.40
2022-10-29T18:27:10.708Z,2.70
2022-10-29T18:29:38.715Z,2.93
2022-10-29T18:32:06.840Z,2.60
2022-10-29T18:34:34.889Z,2.90
2022-10-29T18:37:02.979Z,3.10
2022-10-29T18:39:30.946Z,2.83
2022-10-29T18:42:00.741Z,2.70
2022-10-29T18:44:28.759Z,2.73
2022-10-29T18:46:56.803Z,3.00
2022-10-29T18:49:24.887Z,2.77
2022-10-29T18:51:54.487Z,2.93
2022-10-29T18:54:22.516Z,3.00
2022-10-29T18:56:50.517Z,3.13
2022-10-29T18:59:19.951Z,3.00
2022-10-29T19:01:48.111Z,2.97
2022-10-29T19:04:17.097Z,2.93
2022-10-29T19:06:45.082Z,2.80
2022-10-29T19:09:13.754Z,2.80
2022-10-29T19:11:42.114Z,3.00
2022-10-29T19:14:13.783Z,2.30
2022-10-29T19:16:43.216Z,2.70
2022-10-29T19:19:14.423Z,2.80
2022-10-29T19:21:43.264Z,2.57
2022-10-29T19:24:14.499Z,2.93
2022-10-29T19:26:43.381Z,2.90
2022-10-29T19:29:12.167Z,2.87
2022-10-29T19:31:40.362Z,2.83
2022-10-29T19:34:09.889Z,2.60
2022-10-29T19:36:40.303Z,2.60
2022-10-29T19:39:08.846Z,2.60
2022-10-29T19:41:37.659Z,2.70
2022-10-29T19:44:06.634Z,2.50
2022-10-29T19:46:34.682Z,2.70
2022-10-29T19:49:02.675Z,2.73
2022-10-29T19:51:32.044Z,2.80
2022-10-29T19:54:02.075Z,2.67
2022-10-29T19:56:30.061Z,2.80
2022-10-29T19:58:58.023Z,2.63
2022-10-29T20:01:26.083Z,2.63
2022-10-29T20:03:54.145Z,3.00
2022-10-29T20:06:22.194Z,2.77
2022-10-29T20:08:52.031Z,2.40
2022-10-29T20:11:20.292Z,2.90
2022-10-29T20:13:48.242Z,2.63
2022-10-29T20:16:18.276Z,2.70
2022-10-29T20:18:46.437Z,2.77
2022-10-29T20:21:14.546Z,3.30
2022-10-29T20:23:42.578Z,3.10
2022-10-29T20:26:12.399Z,3.20
2022-10-29T20:28:40.599Z,3.20
2022-10-29T20:31:29.755Z,2.97
2022-10-29T20:34:00.067Z,3.10
2022-10-29T20:36:30.889Z,3.27
2022-10-29T20:38:59.668Z,2.80
2022-10-29T20:41:29.370Z,3.00
2022-10-29T20:44:01.159Z,3.10
2022-10-29T20:46:29.550Z,3.10
2022-10-29T20:48:57.651Z,3.03
2022-10-29T20:51:26.295Z,2.50
2022-10-29T20:53:55.311Z,3.00
2022-10-29T20:56:25.502Z,2.90
2022-10-29T20:58:55.670Z,3.03
2022-10-29T21:01:26.001Z,2.90
2022-10-29T21:03:54.317Z,3.10
2022-10-29T21:06:22.432Z,2.90
2022-10-29T21:08:51.798Z,3.00
2022-10-29T21:11:21.461Z,2.80
2022-10-29T21:13:49.738Z,3.03
2022-10-29T21:16:21.625Z,2.73
2022-10-29T21:18:51.341Z,2.70
2022-10-29T21:21:19.982Z,3.03
2022-10-29T21:23:48.315Z,2.87
2022-10-29T21:26:17.942Z,3.00
2022-10-29T21:28:46.014Z,3.07
2022-10-29T21:31:14.003Z,3.10
2022-10-29T21:33:43.818Z,2.80
2022-10-29T21:36:14.042Z,3.00
2022-10-29T21:38:42.212Z,3.37
2022-10-29T21:41:10.134Z,2.80
2022-10-29T21:43:38.666Z,3.13
2022-10-29T21:46:06.650Z,2.70
2022-10-29T21:48:34.850Z,3.00
2022-10-29T21:51:06.286Z,2.80
2022-10-29T21:53:35.001Z,2.77
2022-10-29T21:56:05.907Z,3.00
2022-10-29T21:58:34.440Z,2.80
2022-10-29T22:01:03.990Z,2.93
2022-10-29T22:03:33.234Z,2.90
2022-10-29T22:06:07.372Z,3.00
2022-10-29T22:08:35.934Z,2.73
2022-10-29T22:11:04.409Z,2.97
2022-10-29T22:13:33.284Z,3.10
2022-10-29T22:16:01.684Z,3.00
2022-10-29T22:18:30.522Z,3.40
2022-10-29T22:21:08.615Z,2.70
2022-10-29T22:23:38.337Z,3.00
2022-10-29T22:26:06.501Z,3.00
2022-10-29T22:28:34.474Z,3.17
2022-10-29T22:31:04.118Z,3.10
2022-10-29T22:33:32.496Z,2.87
2022-10-29T22:36:07.907Z,2.80
2022-10-29T22:38:36.109Z,2.70
2022-10-29T22:41:06.024Z,2.70
2022-10-29T22:43:34.189Z,2.97
2022-10-29T22:46:02.672Z,2.67
2022-10-29T22:48:30.927Z,2.60
2022-10-29T22:51:03.479Z,2.87
2022-10-29T22:53:33.162Z,3.10
2022-10-29T22:56:01.453Z,2.80
2022-10-29T22:58:29.540Z,2.93
2022-10-29T23:01:05.892Z,2.50
2022-10-29T23:03:34.620Z,2.70
2022-10-29T23:06:04.719Z,2.80
2022-10-29T23:08:34.890Z,2.67
2022-10-29T23:11:05.903Z,2.70
2022-10-29T23:13:34.317Z,2.60
2022-10-29T23:16:02.366Z,2.93
2022-10-29T23:18:30.359Z,3.00
2022-10-29T23:21:02.089Z,2.80
2022-10-29T23:23:30.930Z,2.90
2022-10-29T23:26:02.485Z,2.60
2022-10-29T23:28:31.925Z,2.90
2022-10-29T23:31:01.497Z,2.77
2022-10-29T23:33:34.280Z,2.93
2022-10-29T23:36:07.145Z,2.80
2022-10-29T23:38:35.932Z,2.60
2022-10-29T23:41:05.957Z,3.10
2022-10-29T23:43:34.032Z,2.97
2022-10-29T23:46:02.379Z,3.17
2022-10-29T23:48:30.676Z,2.70
2022-10-29T23:50:59.621Z,3.00
2022-10-29T23:53:27.559Z,2.80
2022-10-29T23:55:55.547Z,3.00
2022-10-29T23:58:25.325Z,2.70
